This is the latest recevied weather packets stored in our database for station/object N8BAP. If no packets are shown the sender has not sent any weather packets the latest 10 day(s).
| Time | Temp. | Humidity | Pressure | Rain* | Wind** | Luminosity | Snow |
|---|---|---|---|---|---|---|---|
| 1787952619 | 26.67° C | 62% | 1024.8 hPa | 0 mm | - | 117 W/m² | - |
| 1787952318 | 27.22° C | 60% | 1024.8 hPa | 0 mm | - | 130 W/m² | - |
| 1787952015 | 27.22° C | 57% | 1024.5 hPa | 0 mm | - | 380 W/m² | - |
| 1787951709 | 27.78° C | 56% | 1024.7 hPa | 0 mm | - | 437 W/m² | - |
| 1787951405 | 28.33° C | 59% | 1024.6 hPa | 0 mm | - | 453 W/m² | - |
| 1787951101 | 27.78° C | 57% | 1024.7 hPa | 0 mm | - | 464 W/m² | - |
| 1787950796 | 27.78° C | 62% | 1024.5 hPa | 0 mm | - | 436 W/m² | - |
| 1787950491 | 28.33° C | 58% | 1024.5 hPa | 0 mm | - | 416 W/m² | - |
| 1787950188 | 28.33° C | 58% | 1024.7 hPa | 0 mm | - | 476 W/m² | - |
| 1787949883 | 28.33° C | 59% | 1024.7 hPa | 0 mm | - | 471 W/m² | - |
| 1787949578 | 28.33° C | 54% | 1024.9 hPa | 0 mm | - | 487 W/m² | - |
| 1787949273 | 28.33° C | 56% | 1024.7 hPa | 0 mm | - | 471 W/m² | - |
| 1787948968 | 27.78° C | 58% | 1024.8 hPa | 0 mm | - | 508 W/m² | - |
| 1787948664 | 28.33° C | 57% | 1024.5 hPa | 0 mm | - | 529 W/m² | - |
| 1787948359 | 28.33° C | 57% | 1025 hPa | 0 mm | - | 532 W/m² | - |
| 1787948058 | 28.33° C | 57% | 1024.7 hPa | 0 mm | - | 530 W/m² | - |
| 1787947752 | 28.33° C | 57% | 1024.7 hPa | 0 mm | - | 521 W/m² | - |
| 1787947451 | 28.33° C | 57% | 1024.9 hPa | 0 mm | - | 559 W/m² | - |
| 1787947146 | 27.22° C | 64% | 1025 hPa | 0 mm | - | 643 W/m² | - |
| 1787946845 | 27.22° C | 64% | 1024.9 hPa | 0 mm | - | 228 W/m² | - |
| 1787946543 | 27.22° C | 63% | 1024.9 hPa | 0 mm | - | 193 W/m² | - |
| 1787946239 | 28.33° C | 57% | 1024.9 hPa | 0 mm | - | 214 W/m² | - |
| 1787945938 | 28.89° C | 57% | 1025 hPa | 0 mm | - | 240 W/m² | - |
| 1787945633 | 28.89° C | 56% | 1025.2 hPa | 0 mm | - | 478 W/m² | - |
| 1787945328 | 28.89° C | 59% | 1025 hPa | 0 mm | - | 718 W/m² | - |
* Rain latest hour (hover to see other rain measurements)
** Current wind speed in m/s (hover to see current wind gust speed)